METAR AND TAF INFORMATION
METAR FOR KSTE
ADDS - METARS form results

(0611 UTC 27 April 2018)
Data provider http://aviationweather.gov/adds/metars/
 
METAR text: KSTE 270555Z AUTO 00000KT 10SM CLR 02/00 A2987 RMK AO2 T00211003 10165 20021 401811026
Conditions at: KSTE (STEVENS POINT , WI, US) observed 0555 UTC 27 April 2018
Temperature: 2.1°C (36°F)
Dewpoint: -0.3°C (31°F) [RH = 84%]
Pressure (altimeter): 29.87 inches Hg (1011.6 mb)
Winds: calm
Visibility: 10 or more miles (16+ km)
Ceiling: at least 12,000 feet AGL
Clouds: sky clear below 12,000 feet AGL
Weather: automated observation with no human augmentation;
there may or may not be significant weather present at this time

METAR text: KSTE 270535Z AUTO 35003KT 10SM CLR 04/00 A2987 RMK AO2 T00370000
Conditions at: KSTE (STEVENS POINT , WI, US) observed 0535 UTC 27 April 2018
Temperature: 3.7°C (39°F)
Dewpoint: 0.0°C (32°F) [RH = 77%]
Pressure (altimeter): 29.87 inches Hg (1011.6 mb)
Winds: from the N (350 degrees) at 3 MPH (3 knots; 1.6 m/s)
Visibility: 10 or more miles (16+ km)
Ceiling: at least 12,000 feet AGL
Clouds: sky clear below 12,000 feet AGL
Weather: automated observation with no human augmentation;
there may or may not be significant weather present at this time

METAR text: KSTE 270515Z AUTO 35005KT 10SM CLR 04/00 A2988 RMK AO2 T00390000
Conditions at: KSTE (STEVENS POINT , WI, US) observed 0515 UTC 27 April 2018
Temperature: 3.9°C (39°F)
Dewpoint: 0.0°C (32°F) [RH = 76%]
Pressure (altimeter): 29.88 inches Hg (1011.9 mb)
Winds: from the N (350 degrees) at 6 MPH (5 knots; 2.6 m/s)
Visibility: 10 or more miles (16+ km)
Ceiling: at least 12,000 feet AGL
Clouds: sky clear below 12,000 feet AGL
Weather: automated observation with no human augmentation;
there may or may not be significant weather present at this time

 AIRPORT MAP

 RUNWAY INFORMATION
Runway 03 Runway length 6028 ft Runway width 120 ft
Runway elevation 1103 ft Runway displaced threshold 0 ft Runway heading 30
Runway 21 Runway length 6028 ft Runway width 120 ft
Runway elevation 1110 ft Runway displaced threshold 0 ft Runway heading 210
Runway 12 Runway length 3635 ft Runway width 75 ft
Runway elevation 1105 ft Runway displaced threshold 0 ft Runway heading 120
Runway 30 Runway length 3635 ft Runway width 75 ft
Runway elevation 1103 ft Runway displaced threshold 0 ft Runway heading 300

 AIRPORT FREQUENCIES
Type AWOS Name AWOS 3 Frequency 119.275 MHZ
Type CNTR Name MINNEAPOLI Frequency 124.4 MHZ
Type RDO Name GREEN BAY Frequency 110.6 MHZ
Type UNIC Name CTAF/UNICO Frequency 122.7 MHZ

 AIRPORT NEAR NAVIGATION AIDS



Powered by Virtual Airlines Manager [v2.6.2]